createdAt,value
2024-01-30T00:00:05.654Z,15.85
2024-01-30T00:02:33.491Z,16.67
2024-01-30T00:05:00.414Z,15.65
2024-01-30T00:07:27.563Z,13.35
2024-01-30T00:09:54.506Z,17.25
2024-01-30T00:12:21.791Z,11.80
2024-01-30T00:14:49.625Z,15.30
2024-01-30T00:17:18.219Z,9.88
2024-01-30T00:19:45.215Z,8.45
2024-01-30T00:22:12.280Z,9.25
2024-01-30T00:24:39.157Z,10.07
2024-01-30T00:27:06.039Z,9.60
2024-01-30T00:32:02.019Z,8.05
2024-01-30T00:36:55.603Z,7.43
2024-01-30T00:39:22.605Z,8.45
2024-01-30T00:41:49.404Z,8.32
2024-01-30T00:46:42.961Z,8.32
2024-01-30T00:51:36.679Z,8.57
2024-01-30T00:54:04.172Z,8.52
2024-01-30T00:56:31.118Z,10.25
2024-01-30T00:58:57.988Z,9.85
2024-01-30T01:03:51.814Z,11.35
2024-01-30T01:06:18.819Z,11.35
2024-01-30T01:08:45.694Z,9.63
2024-01-30T01:13:39.136Z,8.73
2024-01-30T01:18:33.165Z,9.95
2024-01-30T01:21:00.617Z,9.90
2024-01-30T01:23:27.629Z,9.43
2024-01-30T01:25:55.806Z,8.13
2024-01-30T01:28:23.728Z,8.90
2024-01-30T01:33:17.473Z,7.00
2024-01-30T01:35:44.363Z,8.90
2024-01-30T01:40:40.786Z,9.77
2024-01-30T01:43:07.920Z,9.68
2024-01-30T01:45:34.866Z,8.30
2024-01-30T01:48:01.824Z,7.60
2024-01-30T01:50:29.388Z,7.47
2024-01-30T01:52:56.822Z,8.63
2024-01-30T01:55:26.206Z,8.80
2024-01-30T01:57:54.240Z,7.93
2024-01-30T02:00:21.468Z,7.72
2024-01-30T02:02:48.592Z,7.57
2024-01-30T02:05:17.084Z,9.15
2024-01-30T02:07:45.064Z,8.15
2024-01-30T02:10:12.131Z,7.28
2024-01-30T02:12:39.656Z,7.65
2024-01-30T02:15:08.642Z,7.87
2024-01-30T02:17:35.682Z,8.65
2024-01-30T02:20:03.239Z,8.25
2024-01-30T02:22:30.404Z,7.78
2024-01-30T02:24:57.276Z,8.35
2024-01-30T02:29:50.812Z,8.60
2024-01-30T02:34:44.427Z,7.60
2024-01-30T02:37:11.413Z,7.72
2024-01-30T02:39:38.331Z,7.93
2024-01-30T02:42:05.442Z,7.95
2024-01-30T02:44:32.291Z,8.20
2024-01-30T02:49:25.974Z,8.25
2024-01-30T02:51:53.923Z,8.35
2024-01-30T02:54:20.817Z,7.85
2024-01-30T02:56:47.644Z,7.87
2024-01-30T03:01:48.004Z,7.80
2024-01-30T03:04:15.353Z,7.72
2024-01-30T03:06:47.489Z,7.97
2024-01-30T03:09:14.845Z,8.18
2024-01-30T03:11:41.788Z,7.97
2024-01-30T03:14:09.464Z,8.32
2024-01-30T03:16:36.350Z,8.93
2024-01-30T03:19:04.902Z,9.20
2024-01-30T03:21:31.778Z,7.72
2024-01-30T03:26:25.294Z,10.30
2024-01-30T03:31:18.997Z,7.87
2024-01-30T03:33:46.058Z,10.73
2024-01-30T03:36:13.071Z,8.00
2024-01-30T03:38:39.830Z,8.45
2024-01-30T03:43:35.559Z,7.97
2024-01-30T03:48:30.298Z,9.38
2024-01-30T03:50:57.127Z,8.63
2024-01-30T03:55:50.645Z,9.93
2024-01-30T04:00:44.366Z,9.25
2024-01-30T04:03:11.309Z,8.80
2024-01-30T04:05:38.247Z,9.52
2024-01-30T04:08:05.468Z,9.50
2024-01-30T04:10:32.348Z,9.60
2024-01-30T04:12:59.293Z,10.73
2024-01-30T04:15:26.228Z,13.38
2024-01-30T04:17:53.243Z,15.38
2024-01-30T04:20:20.263Z,14.77
2024-01-30T04:22:47.978Z,16.52
2024-01-30T04:25:15.398Z,21.35
2024-01-30T04:27:42.523Z,18.25
2024-01-30T04:30:10.215Z,17.17
2024-01-30T04:32:37.939Z,14.77
2024-01-30T04:35:08.913Z,14.98
2024-01-30T04:37:38.274Z,11.02
2024-01-30T04:42:32.212Z,9.45
2024-01-30T04:44:59.010Z,8.68
2024-01-30T04:49:53.074Z,8.65
2024-01-30T04:52:20.122Z,9.65
2024-01-30T04:54:47.084Z,9.63
2024-01-30T04:57:14.042Z,8.68
2024-01-30T04:59:41.047Z,10.68
2024-01-30T05:02:08.491Z,9.60
2024-01-30T05:04:35.556Z,9.23
2024-01-30T05:07:02.490Z,9.65
2024-01-30T05:09:29.858Z,10.13
2024-01-30T05:11:57.057Z,10.77
2024-01-30T05:14:23.914Z,9.82
2024-01-30T05:19:18.752Z,9.68
2024-01-30T05:21:46.025Z,10.20
2024-01-30T05:24:12.989Z,10.18
2024-01-30T05:26:39.817Z,10.68
2024-01-30T05:31:33.823Z,9.90
2024-01-30T05:34:00.945Z,11.65
2024-01-30T05:36:27.940Z,13.30
2024-01-30T05:38:54.777Z,13.02
2024-01-30T05:43:49.206Z,12.93
2024-01-30T05:48:42.958Z,12.60
2024-01-30T05:51:10.053Z,12.65
2024-01-30T05:53:36.940Z,13.93
2024-01-30T05:58:32.289Z,12.43
2024-01-30T06:00:59.661Z,12.70
2024-01-30T06:03:26.760Z,13.88
2024-01-30T06:05:53.640Z,13.23
2024-01-30T06:08:20.477Z,14.63
2024-01-30T06:13:14.043Z,12.15
2024-01-30T06:15:40.932Z,14.05
2024-01-30T06:18:07.922Z,14.13
2024-01-30T06:20:34.900Z,13.52
2024-01-30T06:23:02.047Z,15.15
2024-01-30T06:25:28.986Z,14.45
2024-01-30T06:27:56.215Z,14.98
2024-01-30T06:30:23.024Z,15.65
2024-01-30T06:35:18.819Z,14.50
2024-01-30T06:37:45.665Z,15.10
2024-01-30T06:42:39.712Z,13.95
2024-01-30T06:45:07.049Z,16.85
2024-01-30T06:47:34.058Z,17.08
2024-01-30T06:50:01.181Z,14.23
2024-01-30T06:52:28.202Z,15.02
2024-01-30T06:54:55.885Z,15.05
2024-01-30T06:57:22.789Z,14.95
2024-01-30T07:02:16.470Z,15.57
2024-01-30T07:04:47.025Z,16.95
2024-01-30T07:07:16.987Z,15.73
2024-01-30T07:09:44.071Z,14.25
2024-01-30T07:12:10.955Z,13.20
2024-01-30T07:14:38.029Z,13.57
2024-01-30T07:17:05.042Z,13.30
2024-01-30T07:19:31.887Z,12.23
2024-01-30T07:21:58.871Z,11.55
2024-01-30T07:24:25.731Z,11.38
2024-01-30T07:26:52.768Z,12.90
2024-01-30T07:29:19.643Z,12.48
2024-01-30T07:31:46.542Z,12.00
2024-01-30T07:34:13.594Z,11.48
2024-01-30T07:36:40.514Z,11.23
2024-01-30T07:39:07.751Z,12.40
2024-01-30T07:41:34.685Z,12.10
2024-01-30T07:44:01.445Z,11.02
2024-01-30T07:48:55.508Z,11.90
2024-01-30T07:51:23.057Z,12.80
2024-01-30T07:53:52.951Z,12.68
2024-01-30T07:56:19.879Z,13.70
2024-01-30T07:58:46.759Z,13.45
2024-01-30T08:03:42.725Z,13.13
2024-01-30T08:06:09.596Z,12.75
2024-01-30T08:11:03.352Z,13.62
2024-01-30T08:13:30.181Z,13.60
2024-01-30T08:15:57.007Z,14.25
2024-01-30T08:20:50.665Z,14.60
2024-01-30T08:25:44.182Z,14.50
2024-01-30T08:28:11.188Z,14.05
2024-01-30T08:30:38.166Z,13.88
2024-01-30T08:33:05.197Z,14.27
2024-01-30T08:35:34.957Z,14.18
2024-01-30T08:38:01.964Z,13.30
2024-01-30T08:40:30.190Z,13.80
2024-01-30T08:42:57.169Z,13.20
2024-01-30T08:45:24.060Z,13.73
2024-01-30T08:47:51.036Z,14.82
2024-01-30T08:50:17.885Z,15.23
2024-01-30T08:55:14.629Z,14.98
2024-01-30T08:57:41.648Z,15.73
2024-01-30T09:00:10.487Z,14.25
2024-01-30T09:02:37.607Z,15.48
2024-01-30T09:05:04.809Z,13.82
2024-01-30T09:07:31.855Z,14.02
2024-01-30T09:09:59.058Z,15.18
2024-01-30T09:12:26.236Z,15.93
2024-01-30T09:14:53.148Z,13.98
2024-01-30T09:17:20.060Z,14.98
2024-01-30T09:19:47.632Z,15.00
2024-01-30T09:22:14.541Z,13.95
2024-01-30T09:24:41.963Z,13.68
2024-01-30T09:27:08.946Z,14.23
2024-01-30T09:29:37.936Z,14.00
2024-01-30T09:32:06.672Z,14.30
2024-01-30T09:34:33.890Z,14.63
2024-01-30T09:37:01.455Z,14.73
2024-01-30T09:39:28.302Z,15.30
2024-01-30T09:42:09.253Z,14.82
2024-01-30T09:44:37.479Z,14.73
2024-01-30T09:47:07.182Z,14.10
2024-01-30T09:49:34.742Z,14.38
2024-01-30T09:52:02.112Z,14.55
2024-01-30T09:54:34.575Z,13.07
2024-01-30T09:57:03.662Z,14.20
2024-01-30T09:59:30.557Z,13.15
2024-01-30T10:01:58.306Z,13.13
2024-01-30T10:04:25.267Z,8.93
2024-01-30T10:06:52.730Z,7.07
2024-01-30T10:09:20.365Z,5.80
2024-01-30T10:11:47.300Z,6.82
2024-01-30T10:14:14.169Z,6.15
2024-01-30T10:16:41.000Z,6.62
2024-01-30T10:21:34.695Z,6.37
2024-01-30T10:26:29.522Z,7.57
2024-01-30T10:28:56.730Z,6.87
2024-01-30T10:31:24.230Z,6.22
2024-01-30T10:33:51.233Z,7.28
2024-01-30T10:36:21.234Z,8.45
2024-01-30T10:38:48.919Z,7.45
2024-01-30T10:41:16.757Z,6.30
2024-01-30T10:43:48.842Z,7.55
2024-01-30T10:46:24.979Z,8.00
2024-01-30T10:48:59.515Z,8.50
2024-01-30T10:51:29.879Z,9.38
2024-01-30T10:53:57.682Z,10.80
2024-01-30T10:56:26.682Z,7.47
2024-01-30T10:58:54.867Z,7.20
2024-01-30T11:01:24.579Z,8.35
2024-01-30T11:03:52.759Z,7.32
2024-01-30T11:06:19.977Z,7.22
2024-01-30T11:08:47.219Z,7.53
2024-01-30T11:11:16.349Z,6.85
2024-01-30T11:13:44.997Z,6.30
2024-01-30T11:16:12.664Z,6.30
2024-01-30T11:18:39.603Z,6.68
2024-01-30T11:21:06.771Z,6.47
2024-01-30T11:23:35.103Z,6.97
2024-01-30T11:26:02.065Z,8.25
2024-01-30T11:28:35.749Z,7.43
2024-01-30T11:31:06.917Z,7.30
2024-01-30T11:33:35.279Z,6.53
2024-01-30T11:36:03.616Z,7.95
2024-01-30T11:38:30.576Z,6.28
2024-01-30T11:41:00.875Z,7.05
2024-01-30T11:43:27.818Z,8.00
2024-01-30T11:45:54.915Z,7.80
2024-01-30T11:48:21.941Z,6.87
2024-01-30T11:50:51.908Z,7.00
2024-01-30T11:53:18.748Z,7.35
2024-01-30T11:58:17.657Z,8.18
2024-01-30T12:00:45.250Z,8.07
2024-01-30T12:03:12.705Z,8.40
2024-01-30T12:05:44.249Z,9.02
2024-01-30T12:08:16.856Z,8.80
2024-01-30T12:10:43.800Z,8.95
2024-01-30T12:13:11.078Z,9.02
2024-01-30T12:15:37.959Z,8.57
2024-01-30T12:18:09.131Z,9.00
2024-01-30T12:20:36.332Z,9.57
2024-01-30T12:23:03.821Z,9.65
2024-01-30T12:25:31.229Z,9.73
2024-01-30T12:27:59.050Z,9.32
2024-01-30T12:30:26.232Z,9.18
2024-01-30T12:32:53.294Z,8.82
2024-01-30T12:35:21.879Z,9.45
2024-01-30T12:37:50.331Z,9.40
2024-01-30T12:40:17.682Z,9.65
2024-01-30T12:42:50.352Z,9.60
2024-01-30T12:45:21.491Z,8.85
2024-01-30T12:47:48.581Z,9.07
2024-01-30T12:50:17.007Z,8.05
2024-01-30T12:52:45.867Z,8.52
2024-01-30T12:55:14.323Z,9.65
2024-01-30T12:57:41.221Z,9.70
2024-01-30T13:00:09.646Z,9.52
2024-01-30T13:02:38.041Z,8.27
2024-01-30T13:05:05.818Z,8.18
2024-01-30T13:07:33.030Z,8.90
2024-01-30T13:10:04.364Z,7.87
2024-01-30T13:12:33.555Z,7.15
2024-01-30T13:15:02.468Z,8.57
2024-01-30T13:17:29.930Z,8.57
2024-01-30T13:20:02.386Z,8.07
2024-01-30T13:25:00.937Z,7.82
2024-01-30T13:27:28.002Z,7.00
2024-01-30T13:29:54.881Z,7.60
2024-01-30T13:32:21.724Z,8.15
2024-01-30T13:37:15.714Z,9.00
2024-01-30T13:39:42.665Z,7.72
2024-01-30T13:42:09.588Z,8.43
2024-01-30T13:44:37.191Z,8.55
2024-01-30T13:47:04.670Z,7.97
2024-01-30T13:49:31.636Z,7.72
2024-01-30T13:51:59.556Z,8.10
2024-01-30T13:54:26.458Z,7.90
2024-01-30T13:56:53.357Z,7.97
2024-01-30T13:59:24.958Z,7.53
2024-01-30T14:01:52.587Z,8.38
2024-01-30T14:04:19.621Z,9.63
2024-01-30T14:06:53.296Z,8.90
2024-01-30T14:09:24.168Z,10.57
2024-01-30T14:11:51.035Z,9.13
2024-01-30T14:14:18.005Z,7.68
2024-01-30T14:16:44.961Z,9.60
2024-01-30T14:19:11.935Z,9.05
2024-01-30T14:21:39.200Z,9.50
2024-01-30T14:24:06.942Z,9.27
2024-01-30T14:26:35.744Z,10.10
2024-01-30T14:29:02.585Z,9.38
2024-01-30T14:33:56.737Z,9.70
2024-01-30T14:36:23.779Z,8.93
2024-01-30T14:38:50.665Z,8.80
2024-01-30T14:43:44.654Z,10.82
2024-01-30T14:46:11.658Z,10.45
2024-01-30T14:48:38.692Z,10.85
2024-01-30T14:51:05.705Z,10.25
2024-01-30T14:53:32.546Z,9.68
2024-01-30T14:58:26.251Z,9.52
2024-01-30T15:00:53.283Z,10.15
2024-01-30T15:03:23.459Z,12.90
2024-01-30T15:05:51.016Z,10.18
2024-01-30T15:08:17.971Z,11.98
2024-01-30T15:10:45.025Z,13.23
2024-01-30T15:13:13.225Z,13.18
2024-01-30T15:15:40.119Z,14.75
2024-01-30T15:18:07.137Z,14.70
2024-01-30T15:20:34.099Z,14.48
2024-01-30T15:23:01.058Z,15.77
2024-01-30T15:25:30.556Z,15.15
2024-01-30T15:27:57.591Z,17.75
2024-01-30T15:30:24.500Z,15.70
2024-01-30T15:32:52.684Z,16.17
2024-01-30T15:35:19.796Z,13.57
2024-01-30T15:37:47.371Z,12.25
2024-01-30T15:40:14.689Z,13.35
2024-01-30T15:42:41.618Z,12.70
2024-01-30T15:45:08.720Z,13.20
2024-01-30T15:47:35.744Z,15.70
2024-01-30T15:50:02.871Z,29.40
2024-01-30T15:52:29.912Z,30.85
2024-01-30T15:54:56.842Z,32.92
2024-01-30T15:57:24.672Z,31.40
2024-01-30T15:59:51.986Z,36.08
2024-01-30T16:04:48.074Z,40.30
2024-01-30T16:07:15.077Z,43.53
2024-01-30T16:09:42.075Z,41.28
2024-01-30T16:12:09.032Z,46.25
2024-01-30T16:14:37.562Z,47.58
2024-01-30T16:17:04.683Z,52.90
2024-01-30T16:19:31.692Z,54.47
2024-01-30T16:21:58.869Z,51.42
2024-01-30T16:24:25.800Z,44.35
2024-01-30T16:26:52.700Z,46.70
2024-01-30T16:29:19.549Z,49.95
2024-01-30T16:34:13.423Z,67.82
2024-01-30T16:36:41.206Z,70.55
2024-01-30T16:39:09.036Z,77.05
2024-01-30T16:41:37.047Z,74.53
2024-01-30T16:44:05.394Z,74.85
2024-01-30T16:46:32.258Z,64.32
2024-01-30T16:48:59.359Z,73.97
2024-01-30T16:51:26.374Z,89.25
2024-01-30T16:53:53.193Z,96.50
2024-01-30T16:56:19.959Z,80.28
2024-01-30T17:01:13.482Z,71.18
2024-01-30T17:03:43.217Z,59.33
2024-01-30T17:06:13.628Z,63.67
2024-01-30T17:08:41.207Z,89.10
2024-01-30T17:11:09.157Z,69.35
2024-01-30T17:13:37.357Z,33.17
2024-01-30T17:16:04.575Z,25.02
2024-01-30T17:18:31.927Z,26.25
2024-01-30T17:20:58.861Z,31.42
2024-01-30T17:23:27.176Z,34.25
2024-01-30T17:25:54.254Z,34.22
2024-01-30T17:28:21.306Z,31.90
2024-01-30T17:30:49.225Z,30.27
2024-01-30T17:33:16.712Z,29.55
2024-01-30T17:35:43.824Z,29.60
2024-01-30T17:38:10.829Z,27.92
2024-01-30T17:40:37.833Z,27.52
2024-01-30T17:43:05.022Z,28.70
2024-01-30T17:45:32.038Z,29.33
2024-01-30T17:47:58.955Z,29.98
2024-01-30T17:50:26.085Z,24.37
2024-01-30T17:52:55.002Z,23.00
2024-01-30T17:55:21.943Z,30.20
2024-01-30T17:57:48.775Z,22.10
2024-01-30T18:02:46.577Z,23.40
2024-01-30T18:05:13.952Z,25.00
2024-01-30T18:07:41.490Z,22.45
2024-01-30T18:10:08.887Z,22.90
2024-01-30T18:12:36.381Z,31.83
2024-01-30T18:15:06.807Z,52.38
2024-01-30T18:17:33.598Z,51.25
2024-01-30T18:22:27.953Z,37.72
2024-01-30T18:24:54.765Z,36.67
2024-01-30T18:27:22.674Z,40.63
2024-01-30T18:29:52.194Z,35.38
2024-01-30T18:32:20.129Z,29.10
2024-01-30T18:34:47.145Z,27.02
2024-01-30T18:37:14.126Z,25.90
2024-01-30T18:39:43.291Z,28.35
2024-01-30T18:42:10.324Z,30.00
2024-01-30T18:44:37.242Z,31.10
2024-01-30T18:47:04.522Z,26.40
2024-01-30T18:49:31.404Z,27.08
2024-01-30T18:51:59.676Z,29.42
2024-01-30T18:54:26.834Z,30.83
2024-01-30T18:56:53.650Z,37.03
2024-01-30T19:01:47.267Z,28.77
2024-01-30T19:04:14.507Z,31.35
2024-01-30T19:06:41.545Z,25.60
2024-01-30T19:09:11.611Z,24.27
2024-01-30T19:11:38.476Z,26.48
2024-01-30T19:14:05.389Z,24.30
2024-01-30T19:16:32.301Z,24.40
2024-01-30T19:18:59.255Z,22.15
2024-01-30T19:21:26.162Z,29.17
2024-01-30T19:23:54.708Z,32.85
2024-01-30T19:26:21.530Z,49.55
2024-01-30T19:31:19.181Z,55.15
2024-01-30T19:33:46.718Z,55.92
2024-01-30T19:36:14.111Z,56.88
2024-01-30T19:38:41.054Z,61.03
2024-01-30T19:41:08.849Z,66.75
2024-01-30T19:43:36.006Z,43.05
2024-01-30T19:46:02.975Z,26.58
2024-01-30T19:48:29.934Z,25.77
2024-01-30T19:50:57.694Z,24.63
2024-01-30T19:53:24.636Z,24.73
2024-01-30T19:55:51.510Z,28.90
2024-01-30T19:58:18.369Z,36.10
2024-01-30T20:00:45.536Z,42.88
2024-01-30T20:03:12.505Z,45.80
2024-01-30T20:05:39.457Z,46.67
2024-01-30T20:08:06.662Z,45.03
2024-01-30T20:10:33.733Z,44.30
2024-01-30T20:13:00.695Z,49.70
2024-01-30T20:15:27.654Z,42.60
2024-01-30T20:17:54.490Z,39.83
2024-01-30T20:20:21.765Z,37.97
2024-01-30T20:22:48.810Z,39.53
2024-01-30T20:25:19.229Z,32.17
2024-01-30T20:27:47.761Z,31.27
2024-01-30T20:30:14.863Z,24.77
2024-01-30T20:32:41.974Z,26.83
2024-01-30T20:35:09.422Z,29.80
2024-01-30T20:37:38.297Z,28.60
2024-01-30T20:40:05.925Z,31.52
2024-01-30T20:42:32.847Z,30.37
2024-01-30T20:44:59.795Z,28.77
2024-01-30T20:47:26.862Z,28.33
2024-01-30T20:49:53.923Z,27.23
2024-01-30T20:52:20.806Z,27.92
2024-01-30T20:54:47.676Z,28.20
2024-01-30T20:57:14.628Z,32.97
2024-01-30T20:59:41.468Z,40.72
2024-01-30T21:02:08.344Z,35.22
2024-01-30T21:04:35.276Z,32.80
2024-01-30T21:07:02.260Z,31.20
2024-01-30T21:09:29.302Z,31.80
2024-01-30T21:11:56.788Z,31.75
2024-01-30T21:14:23.757Z,29.10
2024-01-30T21:16:50.516Z,30.92
2024-01-30T21:21:44.925Z,39.97
2024-01-30T21:26:38.453Z,29.27
2024-01-30T21:29:05.306Z,28.60
2024-01-30T21:31:32.203Z,28.02
2024-01-30T21:33:59.115Z,27.05
2024-01-30T21:36:25.991Z,38.72
2024-01-30T21:38:52.813Z,44.08
2024-01-30T21:41:19.914Z,64.30
2024-01-30T21:43:47.464Z,63.38
2024-01-30T21:46:24.478Z,79.80
2024-01-30T21:48:51.352Z,78.18
2024-01-30T21:51:20.918Z,70.97
2024-01-30T21:53:47.952Z,57.80
2024-01-30T21:56:14.925Z,58.87
2024-01-30T21:58:41.829Z,48.83
2024-01-30T22:01:08.769Z,45.40
2024-01-30T22:03:35.819Z,45.70
2024-01-30T22:06:02.672Z,48.60
2024-01-30T22:10:56.161Z,34.83
2024-01-30T22:13:23.602Z,34.05
2024-01-30T22:15:50.641Z,30.95
2024-01-30T22:18:17.540Z,30.40
2024-01-30T22:20:44.487Z,27.23
2024-01-30T22:25:38.207Z,19.65
2024-01-30T22:28:05.478Z,23.90
2024-01-30T22:30:32.329Z,31.73
2024-01-30T22:35:25.987Z,33.30
2024-01-30T22:37:53.042Z,31.92
2024-01-30T22:40:19.942Z,34.90
2024-01-30T22:42:46.787Z,36.90
2024-01-30T22:47:40.326Z,25.25
2024-01-30T22:52:34.253Z,24.83
2024-01-30T22:55:01.288Z,26.05
2024-01-30T22:57:29.034Z,33.40
2024-01-30T22:59:56.057Z,36.63
2024-01-30T23:04:50.600Z,36.67
2024-01-30T23:07:18.046Z,37.22
2024-01-30T23:09:47.782Z,36.88
2024-01-30T23:12:14.640Z,36.30
2024-01-30T23:17:08.173Z,30.08
2024-01-30T23:22:01.904Z,25.55
2024-01-30T23:24:28.745Z,28.15
2024-01-30T23:29:22.285Z,30.30
2024-01-30T23:34:16.583Z,27.75
2024-01-30T23:36:44.448Z,28.17
2024-01-30T23:39:11.574Z,26.55
2024-01-30T23:41:38.439Z,26.75
2024-01-30T23:46:33.958Z,26.67
2024-01-30T23:49:01.903Z,26.20
2024-01-30T23:51:28.898Z,25.67
2024-01-30T23:53:55.828Z,26.75
2024-01-30T23:56:23.055Z,25.88
2024-01-30T23:58:49.972Z,26.73
